sensor_id;sensor_type;location;lat;lon;timestamp;temperature;humidity
7498;DHT22;3790;48.806;9.140;2023-03-01T00:04:40;-1.70;99.90
7498;DHT22;3790;48.806;9.140;2023-03-01T00:09:41;-1.90;99.90
7498;DHT22;3790;48.806;9.140;2023-03-01T00:14:41;-1.90;99.90
7498;DHT22;3790;48.806;9.140;2023-03-01T00:19:42;-2.10;99.90
7498;DHT22;3790;48.806;9.140;2023-03-01T00:24:42;-2.30;99.90
7498;DHT22;3790;48.806;9.140;2023-03-01T00:29:43;-2.20;99.90
7498;DHT22;3790;48.806;9.140;2023-03-01T00:34:44;-2.20;99.90
7498;DHT22;3790;48.806;9.140;2023-03-01T00:39:54;-2.30;99.90
7498;DHT22;3790;48.806;9.140;2023-03-01T00:44:54;-2.20;99.90
7498;DHT22;3790;48.806;9.140;2023-03-01T00:49:55;-2.30;99.90
7498;DHT22;3790;48.806;9.140;2023-03-01T00:54:55;-2.40;99.90
7498;DHT22;3790;48.806;9.140;2023-03-01T00:59:58;-2.50;99.90
7498;DHT22;3790;48.806;9.140;2023-03-01T01:04:58;-2.60;99.90
7498;DHT22;3790;48.806;9.140;2023-03-01T01:09:59;-2.70;99.90
7498;DHT22;3790;48.806;9.140;2023-03-01T01:15:00;-2.80;99.90
7498;DHT22;3790;48.806;9.140;2023-03-01T01:20:00;-2.80;99.90
7498;DHT22;3790;48.806;9.140;2023-03-01T01:25:01;-2.80;99.90
7498;DHT22;3790;48.806;9.140;2023-03-01T01:30:02;-3.00;99.90
7498;DHT22;3790;48.806;9.140;2023-03-01T01:35:03;-3.00;99.90
7498;DHT22;3790;48.806;9.140;2023-03-01T01:40:04;-3.00;99.90
7498;DHT22;3790;48.806;9.140;2023-03-01T01:50:27;-2.90;99.90
7498;DHT22;3790;48.806;9.140;2023-03-01T01:55:41;-2.80;99.90
7498;DHT22;3790;48.806;9.140;2023-03-01T02:00:42;-2.70;99.90
7498;DHT22;3790;48.806;9.140;2023-03-01T02:05:50;-2.60;99.90
7498;DHT22;3790;48.806;9.140;2023-03-01T02:10:55;-2.30;99.90
7498;DHT22;3790;48.806;9.140;2023-03-01T02:15:56;-2.10;99.90
7498;DHT22;3790;48.806;9.140;2023-03-01T02:31:37;-1.80;99.90
7498;DHT22;3790;48.806;9.140;2023-03-01T02:36:53;-1.80;99.90
7498;DHT22;3790;48.806;9.140;2023-03-01T02:41:56;-1.60;99.90
7498;DHT22;3790;48.806;9.140;2023-03-01T02:47:01;-1.60;99.90
7498;DHT22;3790;48.806;9.140;2023-03-01T02:57:30;-1.40;99.90
7498;DHT22;3790;48.806;9.140;2023-03-01T03:02:31;-1.30;99.90
7498;DHT22;3790;48.806;9.140;2023-03-01T03:07:42;-1.30;99.90
7498;DHT22;3790;48.806;9.140;2023-03-01T03:12:43;-1.30;99.90
7498;DHT22;3790;48.806;9.140;2023-03-01T03:17:44;-1.20;99.90
7498;DHT22;3790;48.806;9.140;2023-03-01T03:22:49;-1.10;99.90
7498;DHT22;3790;48.806;9.140;2023-03-01T03:27:51;-1.30;99.90
7498;DHT22;3790;48.806;9.140;2023-03-01T03:32:59;-1.20;99.90
7498;DHT22;3790;48.806;9.140;2023-03-01T03:38:01;-1.30;99.90
7498;DHT22;3790;48.806;9.140;2023-03-01T03:43:11;-1.10;99.90
7498;DHT22;3790;48.806;9.140;2023-03-01T03:48:13;-1.20;99.90
7498;DHT22;3790;48.806;9.140;2023-03-01T03:53:14;-1.20;99.90
7498;DHT22;3790;48.806;9.140;2023-03-01T03:58:15;-1.10;99.90
7498;DHT22;3790;48.806;9.140;2023-03-01T04:03:17;-1.00;99.90
7498;DHT22;3790;48.806;9.140;2023-03-01T04:08:20;-1.00;99.90
7498;DHT22;3790;48.806;9.140;2023-03-01T04:13:22;-0.90;99.90
7498;DHT22;3790;48.806;9.140;2023-03-01T04:18:23;-0.80;99.90
7498;DHT22;3790;48.806;9.140;2023-03-01T04:23:25;-0.80;99.90
7498;DHT22;3790;48.806;9.140;2023-03-01T04:28:28;-0.70;99.90
7498;DHT22;3790;48.806;9.140;2023-03-01T04:33:29;-0.60;99.90
7498;DHT22;3790;48.806;9.140;2023-03-01T04:38:29;-0.50;99.90
7498;DHT22;3790;48.806;9.140;2023-03-01T04:43:30;-0.50;99.90
7498;DHT22;3790;48.806;9.140;2023-03-01T04:48:31;-0.40;99.90
7498;DHT22;3790;48.806;9.140;2023-03-01T04:53:34;-0.20;99.90
7498;DHT22;3790;48.806;9.140;2023-03-01T04:58:36;-0.30;99.90
7498;DHT22;3790;48.806;9.140;2023-03-01T05:03:37;-0.30;99.90
7498;DHT22;3790;48.806;9.140;2023-03-01T05:08:38;-0.40;99.90
7498;DHT22;3790;48.806;9.140;2023-03-01T05:13:39;-0.30;99.90
7498;DHT22;3790;48.806;9.140;2023-03-01T05:18:40;-0.40;99.90
7498;DHT22;3790;48.806;9.140;2023-03-01T05:23:41;-0.40;99.90
7498;DHT22;3790;48.806;9.140;2023-03-01T05:28:42;-0.30;99.90
7498;DHT22;3790;48.806;9.140;2023-03-01T05:33:42;-0.30;99.90
7498;DHT22;3790;48.806;9.140;2023-03-01T05:38:43;-0.30;99.90
7498;DHT22;3790;48.806;9.140;2023-03-01T05:43:44;-0.30;99.90
7498;DHT22;3790;48.806;9.140;2023-03-01T05:48:45;-0.30;99.90
7498;DHT22;3790;48.806;9.140;2023-03-01T05:53:45;-0.20;99.90
7498;DHT22;3790;48.806;9.140;2023-03-01T05:58:48;-0.20;99.90
7498;DHT22;3790;48.806;9.140;2023-03-01T06:03:49;-0.20;99.90
7498;DHT22;3790;48.806;9.140;2023-03-01T06:08:51;-0.20;99.90
7498;DHT22;3790;48.806;9.140;2023-03-01T06:13:51;-0.30;99.90
7498;DHT22;3790;48.806;9.140;2023-03-01T06:18:52;-0.20;99.90
7498;DHT22;3790;48.806;9.140;2023-03-01T06:23:53;-0.40;99.90
7498;DHT22;3790;48.806;9.140;2023-03-01T06:28:53;-0.40;99.90
7498;DHT22;3790;48.806;9.140;2023-03-01T06:33:54;-0.60;99.90
7498;DHT22;3790;48.806;9.140;2023-03-01T06:38:54;-0.50;99.90
7498;DHT22;3790;48.806;9.140;2023-03-01T06:43:55;-0.60;99.90
7498;DHT22;3790;48.806;9.140;2023-03-01T06:48:55;-0.50;99.90
7498;DHT22;3790;48.806;9.140;2023-03-01T06:53:56;-0.30;99.90
7498;DHT22;3790;48.806;9.140;2023-03-01T06:58:56;-0.10;99.90
7498;DHT22;3790;48.806;9.140;2023-03-01T07:03:57;0.10;99.90
7498;DHT22;3790;48.806;9.140;2023-03-01T07:08:58;0.20;99.90
7498;DHT22;3790;48.806;9.140;2023-03-01T07:13:58;0.10;99.90
7498;DHT22;3790;48.806;9.140;2023-03-01T07:19:00;-0.20;99.90
7498;DHT22;3790;48.806;9.140;2023-03-01T07:24:00;-0.50;99.90
7498;DHT22;3790;48.806;9.140;2023-03-01T07:29:02;-0.70;99.90
7498;DHT22;3790;48.806;9.140;2023-03-01T07:34:03;-0.70;99.90
7498;DHT22;3790;48.806;9.140;2023-03-01T07:39:03;-0.70;99.90
7498;DHT22;3790;48.806;9.140;2023-03-01T07:44:04;-0.70;99.90
7498;DHT22;3790;48.806;9.140;2023-03-01T07:49:04;-0.60;99.90
7498;DHT22;3790;48.806;9.140;2023-03-01T07:54:05;-0.60;99.90
7498;DHT22;3790;48.806;9.140;2023-03-01T07:59:06;-0.50;99.90
7498;DHT22;3790;48.806;9.140;2023-03-01T08:04:08;-0.50;99.90
7498;DHT22;3790;48.806;9.140;2023-03-01T08:09:08;-0.40;99.90
7498;DHT22;3790;48.806;9.140;2023-03-01T08:14:09;-0.40;99.90
7498;DHT22;3790;48.806;9.140;2023-03-01T08:19:11;-0.30;99.90
7498;DHT22;3790;48.806;9.140;2023-03-01T08:24:12;-0.20;99.90
7498;DHT22;3790;48.806;9.140;2023-03-01T08:29:13;-0.10;99.90
7498;DHT22;3790;48.806;9.140;2023-03-01T08:34:15;-0.10;99.90
7498;DHT22;3790;48.806;9.140;2023-03-01T08:39:17;0.10;99.90
7498;DHT22;3790;48.806;9.140;2023-03-01T08:44:19;0.10;99.90
7498;DHT22;3790;48.806;9.140;2023-03-01T08:49:21;0.30;99.90
7498;DHT22;3790;48.806;9.140;2023-03-01T08:54:22;0.40;99.90
7498;DHT22;3790;48.806;9.140;2023-03-01T08:59:22;0.50;99.90
7498;DHT22;3790;48.806;9.140;2023-03-01T09:04:25;0.60;99.90
7498;DHT22;3790;48.806;9.140;2023-03-01T09:09:26;0.70;99.90
7498;DHT22;3790;48.806;9.140;2023-03-01T09:14:26;0.70;99.90
7498;DHT22;3790;48.806;9.140;2023-03-01T09:19:27;0.80;99.90
7498;DHT22;3790;48.806;9.140;2023-03-01T09:24:27;1.00;99.90
7498;DHT22;3790;48.806;9.140;2023-03-01T09:29:28;1.10;99.90
7498;DHT22;3790;48.806;9.140;2023-03-01T09:34:28;1.20;99.90
7498;DHT22;3790;48.806;9.140;2023-03-01T09:39:29;1.40;99.90
7498;DHT22;3790;48.806;9.140;2023-03-01T09:44:47;1.50;99.90
7498;DHT22;3790;48.806;9.140;2023-03-01T09:55:17;1.80;99.90
7498;DHT22;3790;48.806;9.140;2023-03-01T10:00:36;1.90;99.90
7498;DHT22;3790;48.806;9.140;2023-03-01T10:06:02;2.10;99.90
7498;DHT22;3790;48.806;9.140;2023-03-01T10:11:12;2.20;99.90
7498;DHT22;3790;48.806;9.140;2023-03-01T10:16:34;2.30;99.90
7498;DHT22;3790;48.806;9.140;2023-03-01T10:21:44;2.40;99.90
7498;DHT22;3790;48.806;9.140;2023-03-01T10:26:54;2.60;99.90
7498;DHT22;3790;48.806;9.140;2023-03-01T10:31:56;2.80;99.90
7498;DHT22;3790;48.806;9.140;2023-03-01T10:37:01;3.00;99.90
7498;DHT22;3790;48.806;9.140;2023-03-01T10:42:22;3.10;99.90
7498;DHT22;3790;48.806;9.140;2023-03-01T10:47:27;3.30;99.90
7498;DHT22;3790;48.806;9.140;2023-03-01T10:57:37;3.70;99.90
7498;DHT22;3790;48.806;9.140;2023-03-01T11:02:38;3.90;99.90
7498;DHT22;3790;48.806;9.140;2023-03-01T11:07:53;4.10;99.90
7498;DHT22;3790;48.806;9.140;2023-03-01T11:13:16;4.20;99.90
7498;DHT22;3790;48.806;9.140;2023-03-01T11:18:22;4.30;99.90
7498;DHT22;3790;48.806;9.140;2023-03-01T11:23:23;4.50;99.90
7498;DHT22;3790;48.806;9.140;2023-03-01T11:28:26;4.70;99.90
7498;DHT22;3790;48.806;9.140;2023-03-01T11:38:32;5.00;99.90
7498;DHT22;3790;48.806;9.140;2023-03-01T11:44:00;5.10;99.90
7498;DHT22;3790;48.806;9.140;2023-03-01T11:54:24;6.00;99.90
7498;DHT22;3790;48.806;9.140;2023-03-01T12:04:42;11.10;99.90
7498;DHT22;3790;48.806;9.140;2023-03-01T12:20:58;13.90;90.30
7498;DHT22;3790;48.806;9.140;2023-03-01T12:42:14;15.90;82.00
7498;DHT22;3790;48.806;9.140;2023-03-01T12:47:30;16.60;80.70
7498;DHT22;3790;48.806;9.140;2023-03-01T12:52:43;16.60;78.90
7498;DHT22;3790;48.806;9.140;2023-03-01T12:58:38;16.00;78.90
7498;DHT22;3790;48.806;9.140;2023-03-01T13:08:50;9.50;89.70
7498;DHT22;3790;48.806;9.140;2023-03-01T13:19:22;7.50;96.50
7498;DHT22;3790;48.806;9.140;2023-03-01T13:24:27;7.40;97.40
7498;DHT22;3790;48.806;9.140;2023-03-01T13:34:47;8.00;97.50
7498;DHT22;3790;48.806;9.140;2023-03-01T13:39:48;7.80;97.90
7498;DHT22;3790;48.806;9.140;2023-03-01T13:44:49;7.70;98.30
7498;DHT22;3790;48.806;9.140;2023-03-01T13:49:59;10.20;96.00
7498;DHT22;3790;48.806;9.140;2023-03-01T13:55:02;13.50;92.00
7498;DHT22;3790;48.806;9.140;2023-03-01T14:00:04;14.90;86.70
7498;DHT22;3790;48.806;9.140;2023-03-01T14:05:09;16.30;83.50
7498;DHT22;3790;48.806;9.140;2023-03-01T14:10:12;16.60;81.50
7498;DHT22;3790;48.806;9.140;2023-03-01T14:15:35;17.40;78.10
7498;DHT22;3790;48.806;9.140;2023-03-01T14:20:44;17.00;76.90
7498;DHT22;3790;48.806;9.140;2023-03-01T14:25:55;16.60;77.40
7498;DHT22;3790;48.806;9.140;2023-03-01T14:30:58;15.70;76.80
7498;DHT22;3790;48.806;9.140;2023-03-01T14:36:01;16.20;77.90
7498;DHT22;3790;48.806;9.140;2023-03-01T14:41:05;14.40;78.50
7498;DHT22;3790;48.806;9.140;2023-03-01T14:46:23;14.00;81.10
7498;DHT22;3790;48.806;9.140;2023-03-01T14:51:24;13.10;82.30
7498;DHT22;3790;48.806;9.140;2023-03-01T14:56:25;11.40;84.60
7498;DHT22;3790;48.806;9.140;2023-03-01T15:01:26;10.50;88.60
7498;DHT22;3790;48.806;9.140;2023-03-01T15:06:27;9.00;92.20
7498;DHT22;3790;48.806;9.140;2023-03-01T15:11:32;8.20;94.60
7498;DHT22;3790;48.806;9.140;2023-03-01T15:16:33;8.20;95.70
7498;DHT22;3790;48.806;9.140;2023-03-01T15:21:36;8.50;95.80
7498;DHT22;3790;48.806;9.140;2023-03-01T15:26:42;8.50;96.00
7498;DHT22;3790;48.806;9.140;2023-03-01T15:31:52;8.60;96.40
7498;DHT22;3790;48.806;9.140;2023-03-01T15:36:55;8.10;96.60
7498;DHT22;3790;48.806;9.140;2023-03-01T15:41:57;7.80;97.40
7498;DHT22;3790;48.806;9.140;2023-03-01T15:47:04;7.60;98.10
7498;DHT22;3790;48.806;9.140;2023-03-01T15:57:32;7.60;98.40
7498;DHT22;3790;48.806;9.140;2023-03-01T16:02:32;7.40;98.80
7498;DHT22;3790;48.806;9.140;2023-03-01T16:07:33;8.10;98.30
7498;DHT22;3790;48.806;9.140;2023-03-01T16:12:33;8.20;98.10
7498;DHT22;3790;48.806;9.140;2023-03-01T16:17:37;7.40;98.70
7498;DHT22;3790;48.806;9.140;2023-03-01T16:22:37;6.90;99.60
7498;DHT22;3790;48.806;9.140;2023-03-01T16:27:38;6.60;99.90
7498;DHT22;3790;48.806;9.140;2023-03-01T16:32:46;6.40;99.90
7498;DHT22;3790;48.806;9.140;2023-03-01T16:37:47;6.30;99.90
7498;DHT22;3790;48.806;9.140;2023-03-01T16:42:48;6.20;99.90
7498;DHT22;3790;48.806;9.140;2023-03-01T16:47:51;6.00;99.90
7498;DHT22;3790;48.806;9.140;2023-03-01T16:52:51;5.90;99.90
7498;DHT22;3790;48.806;9.140;2023-03-01T16:57:52;5.60;99.90
7498;DHT22;3790;48.806;9.140;2023-03-01T17:02:54;5.40;99.90
7498;DHT22;3790;48.806;9.140;2023-03-01T17:07:54;5.20;99.90
7498;DHT22;3790;48.806;9.140;2023-03-01T17:12:57;5.20;99.90
7498;DHT22;3790;48.806;9.140;2023-03-01T17:17:57;5.10;99.90
7498;DHT22;3790;48.806;9.140;2023-03-01T17:22:58;5.00;99.90
7498;DHT22;3790;48.806;9.140;2023-03-01T17:27:59;4.90;99.90
7498;DHT22;3790;48.806;9.140;2023-03-01T17:32:59;4.70;99.90
7498;DHT22;3790;48.806;9.140;2023-03-01T17:38:00;4.40;99.90
7498;DHT22;3790;48.806;9.140;2023-03-01T17:43:00;4.20;99.90
7498;DHT22;3790;48.806;9.140;2023-03-01T17:48:01;4.00;99.90
7498;DHT22;3790;48.806;9.140;2023-03-01T17:53:02;3.90;99.90
7498;DHT22;3790;48.806;9.140;2023-03-01T17:58:08;3.70;99.90
7498;DHT22;3790;48.806;9.140;2023-03-01T18:03:09;3.60;99.90
7498;DHT22;3790;48.806;9.140;2023-03-01T18:08:09;3.40;99.90
7498;DHT22;3790;48.806;9.140;2023-03-01T18:13:10;3.30;99.90
7498;DHT22;3790;48.806;9.140;2023-03-01T18:18:14;3.40;99.90
7498;DHT22;3790;48.806;9.140;2023-03-01T18:23:14;3.20;99.90
7498;DHT22;3790;48.806;9.140;2023-03-01T18:28:15;3.10;99.90
7498;DHT22;3790;48.806;9.140;2023-03-01T18:33:15;3.00;99.90
7498;DHT22;3790;48.806;9.140;2023-03-01T18:38:16;3.00;99.90
7498;DHT22;3790;48.806;9.140;2023-03-01T18:43:17;3.00;99.90
7498;DHT22;3790;48.806;9.140;2023-03-01T18:48:18;3.10;99.90
7498;DHT22;3790;48.806;9.140;2023-03-01T18:53:18;3.10;99.90
7498;DHT22;3790;48.806;9.140;2023-03-01T18:58:19;3.00;99.90
7498;DHT22;3790;48.806;9.140;2023-03-01T19:03:19;2.90;99.90
7498;DHT22;3790;48.806;9.140;2023-03-01T19:08:20;2.80;99.90
7498;DHT22;3790;48.806;9.140;2023-03-01T19:13:20;2.60;99.90
7498;DHT22;3790;48.806;9.140;2023-03-01T19:18:21;2.60;99.90
7498;DHT22;3790;48.806;9.140;2023-03-01T19:23:21;2.60;99.90
7498;DHT22;3790;48.806;9.140;2023-03-01T19:28:22;2.50;99.90
7498;DHT22;3790;48.806;9.140;2023-03-01T19:33:22;2.40;99.90
7498;DHT22;3790;48.806;9.140;2023-03-01T19:38:23;2.40;99.90
7498;DHT22;3790;48.806;9.140;2023-03-01T19:43:24;2.40;99.90
7498;DHT22;3790;48.806;9.140;2023-03-01T19:48:24;2.40;99.90
7498;DHT22;3790;48.806;9.140;2023-03-01T19:53:25;2.30;99.90
7498;DHT22;3790;48.806;9.140;2023-03-01T19:58:27;2.30;99.90
7498;DHT22;3790;48.806;9.140;2023-03-01T20:03:33;2.30;99.90
7498;DHT22;3790;48.806;9.140;2023-03-01T20:08:34;2.20;99.90
7498;DHT22;3790;48.806;9.140;2023-03-01T20:13:35;2.10;99.90
7498;DHT22;3790;48.806;9.140;2023-03-01T20:18:36;2.00;99.90
7498;DHT22;3790;48.806;9.140;2023-03-01T20:23:37;2.00;99.90
7498;DHT22;3790;48.806;9.140;2023-03-01T20:28:37;2.20;99.90
7498;DHT22;3790;48.806;9.140;2023-03-01T20:33:38;2.40;99.90
7498;DHT22;3790;48.806;9.140;2023-03-01T20:38:39;2.60;99.90
7498;DHT22;3790;48.806;9.140;2023-03-01T20:43:41;2.80;99.90
7498;DHT22;3790;48.806;9.140;2023-03-01T20:48:42;2.80;99.90
7498;DHT22;3790;48.806;9.140;2023-03-01T20:53:42;2.70;99.90
7498;DHT22;3790;48.806;9.140;2023-03-01T20:58:43;2.40;99.90
7498;DHT22;3790;48.806;9.140;2023-03-01T21:03:44;2.20;99.90
7498;DHT22;3790;48.806;9.140;2023-03-01T21:08:44;2.10;99.90
7498;DHT22;3790;48.806;9.140;2023-03-01T21:13:45;2.00;99.90
7498;DHT22;3790;48.806;9.140;2023-03-01T21:18:46;1.90;99.90
7498;DHT22;3790;48.806;9.140;2023-03-01T21:23:47;1.90;99.90
7498;DHT22;3790;48.806;9.140;2023-03-01T21:28:49;1.90;99.90
7498;DHT22;3790;48.806;9.140;2023-03-01T21:33:52;1.80;99.90
7498;DHT22;3790;48.806;9.140;2023-03-01T21:38:53;1.70;99.90
7498;DHT22;3790;48.806;9.140;2023-03-01T21:43:55;1.60;99.90
7498;DHT22;3790;48.806;9.140;2023-03-01T21:48:56;1.50;99.90
7498;DHT22;3790;48.806;9.140;2023-03-01T21:53:58;1.50;99.90
7498;DHT22;3790;48.806;9.140;2023-03-01T21:59:00;1.40;99.90
7498;DHT22;3790;48.806;9.140;2023-03-01T22:04:01;1.50;99.90
7498;DHT22;3790;48.806;9.140;2023-03-01T22:09:08;1.50;99.90
7498;DHT22;3790;48.806;9.140;2023-03-01T22:14:11;1.50;99.90
7498;DHT22;3790;48.806;9.140;2023-03-01T22:19:13;1.50;99.90
7498;DHT22;3790;48.806;9.140;2023-03-01T22:24:16;1.40;99.90
7498;DHT22;3790;48.806;9.140;2023-03-01T22:29:23;1.30;99.90
7498;DHT22;3790;48.806;9.140;2023-03-01T22:34:24;1.20;99.90
7498;DHT22;3790;48.806;9.140;2023-03-01T22:39:25;1.00;99.90
7498;DHT22;3790;48.806;9.140;2023-03-01T22:44:26;0.70;99.90
7498;DHT22;3790;48.806;9.140;2023-03-01T22:49:26;0.60;99.90
7498;DHT22;3790;48.806;9.140;2023-03-01T22:54:27;0.40;99.90
7498;DHT22;3790;48.806;9.140;2023-03-01T22:59:27;0.40;99.90
7498;DHT22;3790;48.806;9.140;2023-03-01T23:04:28;0.40;99.90
7498;DHT22;3790;48.806;9.140;2023-03-01T23:09:32;0.30;99.90
7498;DHT22;3790;48.806;9.140;2023-03-01T23:14:33;0.30;99.90
7498;DHT22;3790;48.806;9.140;2023-03-01T23:19:34;0.20;99.90
7498;DHT22;3790;48.806;9.140;2023-03-01T23:24:35;0.10;99.90
7498;DHT22;3790;48.806;9.140;2023-03-01T23:29:35;0.10;99.90
7498;DHT22;3790;48.806;9.140;2023-03-01T23:34:36;0.30;99.90
7498;DHT22;3790;48.806;9.140;2023-03-01T23:39:37;0.30;99.90
7498;DHT22;3790;48.806;9.140;2023-03-01T23:44:38;0.30;99.90
7498;DHT22;3790;48.806;9.140;2023-03-01T23:49:40;0.30;99.90
7498;DHT22;3790;48.806;9.140;2023-03-01T23:54:40;0.30;99.90
7498;DHT22;3790;48.806;9.140;2023-03-01T23:59:41;0.40;99.90
